Biggs Army Air Field (Fort Bliss)
KBIF : rendu visible

Aérodrome :











RETROUVEZ-NOUS SUR...

 
LOGIN :

S'inscrire | Disclaimer

   EN    FR    IT 

 









Légende :    VFR   VFR Marginal   IFR   IFR Intensif   IFR Très Intensif
Visi : 
Plafond : 
>= 8 km
>= 3000ft
5 à 8 km
1000 à 3000 ft
1500m à 5 km
500 à 1000 ft
800 à 1500m
200 à 500 ft
< 800m
< 200 ft
Symboles :   Orages  Brouillard  Fortes neiges  Fortes précipitations  Vent > 20 kt






- Altitude de l'aérodrome : 3946 ft


KBIF - Biggs Army Air Field (Fort Bliss)

DERNIER METAR :
  • 260358Z AUTO 08015G20KT 10SM CLR 21/06 A2998 RMK AO2 SLP092 T02140061 $

METARs EXPIRÉS :
  • 260258Z AUTO 09015KT 10SM CLR 23/06 A2995 RMK AO2 SLP082 T02280057 52022 $
  • 260158Z AUTO 08016KT 10SM CLR 25/05 A2991 RMK AO2 SLP068 T02460049 $

TAF COR TAF KBIF
Valide du 25 à 21h jusqu'au 26 à 20h UTC


252120Z 2521/2620 VRB06KT 9999 SKC QNH2982INS
BECMG 2603/2604 09015KT 9999 SKC QNH2992INS
BECMG 2609/2610 VRB06KT 9999 SKC QNH3004INS TX30/2522Z TN12/2612Z
FIR KZAB / Amérique du Nord



MET'MAP, la Météo Aéronautique d'un coup d'oeil ! - Copyright ORBIFLY Décembre 2007 - Disclaimer

ORBIFLY MET'MAP TEAM :

Programmation & Développement : Alexandra Zaïnal
Sur une idée originale de : Baudouin d'Aumeries
Assistance à la programmation : Marc-Olivier Méhu
Soutien technique & logistique : Manuel Goepfert

Contact : metmap@orbifly.com




SOURCES & CREDITS :

   NOAA       Earth
Advisory